createdAt,value
2019-05-22T00:00:29.398Z,62.45
2019-05-22T00:01:43.774Z,62.44
2019-05-22T00:02:49.079Z,62.45
2019-05-22T00:04:06.924Z,62.50
2019-05-22T00:05:18.678Z,62.62
2019-05-22T00:06:30.619Z,62.55
2019-05-22T00:07:36.155Z,62.59
2019-05-22T00:08:42.432Z,62.64
2019-05-22T00:09:47.600Z,62.67
2019-05-22T00:10:53.693Z,62.67
2019-05-22T00:11:59.518Z,62.67
2019-05-22T00:13:05.132Z,62.69
2019-05-22T00:14:10.862Z,62.75
2019-05-22T00:15:17.082Z,62.77
2019-05-22T00:16:22.036Z,62.73
2019-05-22T00:17:30.846Z,62.86
2019-05-22T00:18:35.297Z,62.80
2019-05-22T00:19:41.729Z,62.80
2019-05-22T00:20:46.745Z,62.79
2019-05-22T00:21:52.562Z,62.72
2019-05-22T00:22:56.926Z,62.74
2019-05-22T00:24:02.816Z,62.67
2019-05-22T00:25:09.721Z,62.71
2019-05-22T00:26:15.262Z,62.70
2019-05-22T00:27:20.679Z,62.67
2019-05-22T00:28:27.556Z,62.83
2019-05-22T00:29:31.739Z,62.88
2019-05-22T00:30:40.758Z,62.88
2019-05-22T00:31:45.000Z,62.92
2019-05-22T00:32:51.078Z,63.00
2019-05-22T00:33:55.986Z,63.16
2019-05-22T00:35:00.725Z,63.31
2019-05-22T00:36:06.736Z,63.33
2019-05-22T00:37:12.437Z,63.34
2019-05-22T00:38:18.489Z,63.39
2019-05-22T00:39:24.994Z,63.35
2019-05-22T00:40:29.350Z,63.30
2019-05-22T00:41:35.532Z,63.30
2019-05-22T00:42:40.492Z,63.26
2019-05-22T00:43:45.597Z,63.22
2019-05-22T00:44:51.426Z,63.25
2019-05-22T00:45:58.189Z,63.18
2019-05-22T00:47:02.598Z,63.18
2019-05-22T00:48:08.268Z,63.18
2019-05-22T00:50:49.892Z,63.09
2019-05-22T00:52:05.218Z,63.07
2019-05-22T00:53:27.086Z,63.14
2019-05-22T00:54:33.484Z,63.09
2019-05-22T00:55:48.367Z,63.10
2019-05-22T00:56:57.410Z,63.12
2019-05-22T00:58:06.766Z,63.17
2019-05-22T00:59:21.414Z,63.34
2019-05-22T01:00:34.873Z,63.51
2019-05-22T01:01:45.799Z,63.56
2019-05-22T01:02:51.793Z,63.61
2019-05-22T01:03:57.035Z,63.86
2019-05-22T01:05:03.063Z,64.22
2019-05-22T01:06:08.962Z,64.11
2019-05-22T01:07:19.389Z,64.10
2019-05-22T01:08:25.214Z,64.00
2019-05-22T01:09:31.948Z,64.02
2019-05-22T01:10:37.765Z,63.92
2019-05-22T01:11:43.082Z,63.83
2019-05-22T01:12:50.822Z,63.82
2019-05-22T01:13:55.587Z,63.92
2019-05-22T01:15:05.100Z,63.80
2019-05-22T01:16:10.942Z,63.71
2019-05-22T01:17:15.623Z,63.64
2019-05-22T01:18:22.586Z,63.79
2019-05-22T01:19:28.406Z,63.60
2019-05-22T01:20:35.451Z,63.61
2019-05-22T01:21:39.639Z,63.79
2019-05-22T01:22:47.308Z,63.79
2019-05-22T01:23:52.314Z,63.64
2019-05-22T01:24:57.426Z,63.62
2019-05-22T01:26:03.150Z,63.66
2019-05-22T01:27:08.964Z,63.69
2019-05-22T01:28:14.122Z,63.69
2019-05-22T01:29:20.144Z,63.70
2019-05-22T01:30:28.455Z,63.78
2019-05-22T01:31:37.229Z,63.76
2019-05-22T01:32:43.070Z,63.79
2019-05-22T01:33:48.892Z,63.68
2019-05-22T01:34:53.929Z,63.55
2019-05-22T01:36:02.540Z,63.49
2019-05-22T01:37:07.991Z,63.53
2019-05-22T01:38:14.299Z,63.59
2019-05-22T01:39:25.855Z,63.58
2019-05-22T01:40:41.013Z,63.61
2019-05-22T01:41:45.197Z,63.56
2019-05-22T01:42:51.686Z,63.58
2019-05-22T01:43:57.181Z,63.63
2019-05-22T01:45:06.649Z,63.63
2019-05-22T01:46:09.777Z,63.61
2019-05-22T01:47:20.032Z,63.71
2019-05-22T01:48:27.438Z,63.79
2019-05-22T01:49:32.209Z,63.62
2019-05-22T01:50:43.924Z,63.70
2019-05-22T01:51:48.685Z,63.76
2019-05-22T01:52:53.604Z,63.72
2019-05-22T01:53:58.375Z,63.83
2019-05-22T01:55:02.554Z,63.78
2019-05-22T01:56:08.327Z,63.88
2019-05-22T01:57:12.875Z,63.78
2019-05-22T01:58:19.061Z,63.84
2019-05-22T01:59:23.275Z,63.88
2019-05-22T02:00:28.782Z,63.81
2019-05-22T02:01:33.184Z,63.89
2019-05-22T02:02:38.391Z,63.89
2019-05-22T02:03:43.693Z,63.92
2019-05-22T02:04:48.567Z,63.81
2019-05-22T02:05:54.372Z,63.84
2019-05-22T02:06:59.147Z,63.90
2019-05-22T02:08:03.895Z,64.02
2019-05-22T02:09:22.234Z,64.04
2019-05-22T02:10:30.647Z,64.12
2019-05-22T02:11:36.070Z,64.20
2019-05-22T02:12:52.824Z,64.28
2019-05-22T02:14:01.886Z,64.42
2019-05-22T02:15:07.799Z,64.49
2019-05-22T02:16:12.531Z,64.62
2019-05-22T02:17:17.551Z,64.57
2019-05-22T02:18:23.732Z,64.66
2019-05-22T02:19:28.701Z,64.56
2019-05-22T02:20:34.110Z,64.45
2019-05-22T02:21:38.298Z,64.59
2019-05-22T02:22:43.043Z,64.48
2019-05-22T02:23:47.711Z,64.53
2019-05-22T02:24:53.754Z,64.62
2019-05-22T02:25:59.879Z,64.71
2019-05-22T02:27:06.671Z,64.53
2019-05-22T02:28:12.443Z,64.44
2019-05-22T02:29:18.656Z,64.47
2019-05-22T02:30:23.220Z,64.77
2019-05-22T02:31:29.025Z,64.59
2019-05-22T02:32:34.354Z,64.75
2019-05-22T02:33:56.525Z,64.76
2019-05-22T02:35:01.990Z,64.81
2019-05-22T02:36:07.203Z,65.03
2019-05-22T02:37:11.403Z,65.11
2019-05-22T02:38:17.408Z,65.02
2019-05-22T02:39:23.612Z,65.04
2019-05-22T02:40:32.346Z,64.99
2019-05-22T02:41:46.175Z,64.94
2019-05-22T02:42:51.257Z,64.92
2019-05-22T02:43:55.908Z,64.86
2019-05-22T02:45:01.103Z,64.78
2019-05-22T02:46:08.370Z,64.83
2019-05-22T02:47:19.683Z,64.72
2019-05-22T02:48:20.892Z,64.74
2019-05-22T02:49:27.001Z,64.59
2019-05-22T02:50:33.398Z,64.73
2019-05-22T02:51:38.634Z,64.63
2019-05-22T02:52:42.815Z,64.58
2019-05-22T02:53:47.583Z,64.61
2019-05-22T02:54:51.739Z,64.39
2019-05-22T02:55:56.750Z,64.34
2019-05-22T02:57:02.332Z,64.13
2019-05-22T02:58:07.303Z,64.12
2019-05-22T02:59:13.126Z,64.29
2019-05-22T03:00:18.976Z,64.28
2019-05-22T03:01:24.192Z,64.33
2019-05-22T03:02:29.201Z,64.13
2019-05-22T03:03:33.932Z,64.30
2019-05-22T03:04:55.107Z,64.26
2019-05-22T03:06:00.481Z,64.29
2019-05-22T03:07:06.383Z,64.13
2019-05-22T03:08:10.960Z,64.19
2019-05-22T03:09:18.020Z,63.90
2019-05-22T03:10:25.315Z,63.88
2019-05-22T03:11:35.685Z,63.85
2019-05-22T03:12:41.598Z,63.77
2019-05-22T03:13:59.286Z,64.01
2019-05-22T03:15:07.753Z,64.07
2019-05-22T03:16:12.576Z,64.14
2019-05-22T03:17:31.140Z,64.16
2019-05-22T03:18:36.300Z,64.14
2019-05-22T03:19:43.765Z,64.05
2019-05-22T03:20:49.200Z,64.02
2019-05-22T03:21:53.784Z,63.94
2019-05-22T03:23:19.505Z,63.80
2019-05-22T03:24:23.668Z,63.66
2019-05-22T03:25:28.575Z,63.73
2019-05-22T03:26:48.927Z,63.80
2019-05-22T03:27:54.453Z,63.87
2019-05-22T03:28:59.359Z,63.64
2019-05-22T03:30:07.346Z,63.71
2019-05-22T03:31:13.010Z,63.95
2019-05-22T03:32:18.126Z,63.84
2019-05-22T03:33:22.337Z,63.97
2019-05-22T03:34:28.073Z,64.03
2019-05-22T03:35:35.134Z,64.28
2019-05-22T03:36:40.145Z,64.46
2019-05-22T03:37:44.347Z,64.35
2019-05-22T03:38:49.395Z,64.16
2019-05-22T03:39:53.908Z,64.33
2019-05-22T03:40:58.643Z,64.33
2019-05-22T03:42:03.094Z,64.47
2019-05-22T03:43:11.575Z,64.37
2019-05-22T03:44:16.415Z,64.42
2019-05-22T03:45:22.925Z,64.27
2019-05-22T03:46:37.119Z,64.24
2019-05-22T03:47:42.418Z,64.25
2019-05-22T03:48:47.565Z,64.27
2019-05-22T03:49:53.836Z,64.19
2019-05-22T03:51:00.726Z,64.04
2019-05-22T03:52:06.924Z,64.04
2019-05-22T03:53:16.098Z,64.05
2019-05-22T03:54:22.474Z,64.05
2019-05-22T03:55:27.061Z,64.16
2019-05-22T03:56:31.783Z,64.01
2019-05-22T03:57:37.144Z,63.99
2019-05-22T03:58:41.881Z,63.94
2019-05-22T03:59:46.272Z,63.96
2019-05-22T04:00:53.719Z,63.95
2019-05-22T04:01:58.087Z,64.02
2019-05-22T04:03:04.349Z,63.97
2019-05-22T04:04:09.903Z,64.04
2019-05-22T04:05:15.302Z,63.96
2019-05-22T04:06:20.669Z,63.88
2019-05-22T04:07:26.782Z,63.94
2019-05-22T04:08:32.655Z,63.99
2019-05-22T04:09:39.428Z,63.72
2019-05-22T04:10:54.967Z,63.70
2019-05-22T04:11:59.856Z,63.71
2019-05-22T04:13:05.553Z,63.77
2019-05-22T04:14:10.427Z,63.77
2019-05-22T04:15:15.355Z,63.64
2019-05-22T04:16:21.195Z,63.59
2019-05-22T04:17:26.108Z,63.58
2019-05-22T04:18:31.257Z,63.60
2019-05-22T04:19:48.295Z,63.59
2019-05-22T04:20:42.278Z,63.54
2019-05-22T04:21:46.658Z,63.71
2019-05-22T04:22:52.836Z,63.77
2019-05-22T04:23:57.421Z,63.58
2019-05-22T04:25:02.235Z,63.49
2019-05-22T04:26:08.818Z,63.47
2019-05-22T04:27:13.802Z,63.43
2019-05-22T04:28:18.140Z,63.50
2019-05-22T04:29:23.029Z,63.52
2019-05-22T04:30:27.430Z,63.51
2019-05-22T04:31:39.108Z,63.53
2019-05-22T04:32:46.607Z,63.49
2019-05-22T04:33:51.417Z,63.07
2019-05-22T04:34:55.655Z,63.09
2019-05-22T04:36:01.175Z,63.15
2019-05-22T04:37:05.496Z,63.33
2019-05-22T04:38:11.416Z,63.48
2019-05-22T04:39:20.371Z,63.39
2019-05-22T04:40:28.627Z,63.21
2019-05-22T04:41:32.862Z,63.16
2019-05-22T04:42:37.594Z,63.29
2019-05-22T04:43:41.820Z,63.05
2019-05-22T04:45:10.556Z,63.07
2019-05-22T04:46:15.352Z,63.12
2019-05-22T04:47:20.041Z,63.10
2019-05-22T04:48:25.127Z,63.12
2019-05-22T04:49:31.972Z,63.13
2019-05-22T04:50:36.484Z,63.13
2019-05-22T04:51:41.231Z,63.12
2019-05-22T04:52:45.399Z,63.05
2019-05-22T04:53:50.375Z,63.00
2019-05-22T04:54:55.025Z,63.18
2019-05-22T04:55:59.760Z,63.21
2019-05-22T04:57:05.096Z,63.18
2019-05-22T04:58:10.914Z,63.24
2019-05-22T04:59:15.362Z,63.42
2019-05-22T05:00:20.696Z,63.44
2019-05-22T05:01:25.331Z,63.43
2019-05-22T05:02:30.248Z,63.09
2019-05-22T05:03:34.421Z,63.24
2019-05-22T05:04:39.248Z,63.34
2019-05-22T05:05:52.684Z,63.50
2019-05-22T05:06:57.453Z,63.67
2019-05-22T05:08:02.418Z,62.98
2019-05-22T05:09:08.791Z,63.14
2019-05-22T05:10:12.970Z,63.17
2019-05-22T05:11:18.374Z,63.27
2019-05-22T05:12:22.827Z,63.26
2019-05-22T05:13:27.734Z,63.20
2019-05-22T05:14:32.580Z,62.91
2019-05-22T05:15:37.459Z,62.96
2019-05-22T05:16:42.048Z,63.13
2019-05-22T05:17:46.990Z,63.17
2019-05-22T05:18:51.355Z,63.19
2019-05-22T05:19:56.091Z,63.25
2019-05-22T05:21:00.271Z,62.89
2019-05-22T05:22:05.100Z,62.72
2019-05-22T05:23:09.279Z,62.72
2019-05-22T05:24:14.107Z,62.81
2019-05-22T05:25:19.122Z,62.92
2019-05-22T05:26:24.966Z,63.06
2019-05-22T05:27:29.855Z,62.91
2019-05-22T05:28:34.691Z,62.87
2019-05-22T05:29:38.987Z,62.69
2019-05-22T05:30:43.718Z,62.27
2019-05-22T05:31:48.467Z,62.36
2019-05-22T05:32:53.271Z,62.45
2019-05-22T05:34:16.469Z,62.50
2019-05-22T05:35:21.301Z,62.45
2019-05-22T05:36:25.569Z,62.53
2019-05-22T05:37:31.279Z,62.69
2019-05-22T05:38:38.367Z,62.74
2019-05-22T05:39:53.032Z,62.62
2019-05-22T05:40:57.377Z,62.46
2019-05-22T05:42:02.114Z,62.62
2019-05-22T05:43:07.209Z,62.58
2019-05-22T05:44:11.945Z,62.43
2019-05-22T05:45:16.133Z,62.52
2019-05-22T05:46:20.906Z,62.58
2019-05-22T05:47:25.083Z,62.53
2019-05-22T05:48:30.929Z,62.63
2019-05-22T05:49:35.392Z,62.83
2019-05-22T05:50:43.224Z,62.85
2019-05-22T05:51:49.309Z,62.76
2019-05-22T05:52:55.282Z,62.78
2019-05-22T05:54:02.638Z,62.75
2019-05-22T05:55:08.372Z,62.58
2019-05-22T05:56:14.255Z,62.63
2019-05-22T05:57:38.041Z,62.62
2019-05-22T05:58:42.564Z,62.54
2019-05-22T05:59:47.326Z,62.47
2019-05-22T06:00:54.013Z,62.57
2019-05-22T06:01:58.752Z,62.65
2019-05-22T06:03:28.951Z,62.72
2019-05-22T06:04:36.136Z,62.81
2019-05-22T06:05:40.314Z,62.92
2019-05-22T06:06:59.771Z,62.90
2019-05-22T06:08:01.576Z,62.92
2019-05-22T06:09:08.399Z,62.78
2019-05-22T06:10:28.204Z,62.72
2019-05-22T06:11:39.671Z,62.68
2019-05-22T06:12:44.893Z,62.79
2019-05-22T06:13:49.627Z,62.67
2019-05-22T06:14:53.832Z,62.43
2019-05-22T06:16:12.311Z,62.51
2019-05-22T06:17:52.441Z,62.54
2019-05-22T06:18:57.348Z,62.59
2019-05-22T06:20:09.790Z,62.65
2019-05-22T06:21:15.018Z,62.65
2019-05-22T06:22:19.871Z,62.72
2019-05-22T06:23:29.043Z,62.67
2019-05-22T06:24:38.160Z,62.53
2019-05-22T06:25:42.892Z,62.49
2019-05-22T06:26:54.928Z,62.56
2019-05-22T06:28:00.242Z,62.50
2019-05-22T06:29:06.135Z,62.64
2019-05-22T06:30:22.079Z,62.66
2019-05-22T06:31:45.707Z,62.73
2019-05-22T06:33:12.624Z,62.73
2019-05-22T06:34:17.068Z,62.46
2019-05-22T06:35:21.830Z,62.58
2019-05-22T06:36:26.306Z,62.71
2019-05-22T06:37:40.498Z,63.02
2019-05-22T06:38:54.384Z,62.79
2019-05-22T06:39:59.480Z,63.02
2019-05-22T06:41:05.758Z,62.95
2019-05-22T06:42:11.036Z,63.01
2019-05-22T06:43:31.326Z,63.01
2019-05-22T06:44:36.632Z,62.90
2019-05-22T06:45:40.810Z,62.96
2019-05-22T06:46:47.290Z,63.05
2019-05-22T06:47:51.434Z,63.19
2019-05-22T06:48:56.184Z,62.93
2019-05-22T06:50:00.468Z,62.98
2019-05-22T06:51:18.554Z,63.14
2019-05-22T06:52:11.780Z,63.02
2019-05-22T06:53:16.781Z,62.74
2019-05-22T06:54:22.605Z,62.88
2019-05-22T06:55:27.347Z,62.85
2019-05-22T06:56:31.530Z,62.93
2019-05-22T06:57:36.689Z,63.00
2019-05-22T06:58:41.150Z,63.03
2019-05-22T06:59:47.060Z,63.03
2019-05-22T07:00:51.222Z,62.90
2019-05-22T07:02:01.535Z,62.91
2019-05-22T07:03:03.772Z,62.86
2019-05-22T07:04:08.579Z,62.83
2019-05-22T07:05:13.567Z,62.98
2019-05-22T07:06:18.324Z,63.05
2019-05-22T07:07:24.168Z,62.80
2019-05-22T07:08:28.983Z,62.78
2019-05-22T07:09:33.607Z,62.74
2019-05-22T07:10:39.694Z,62.92
2019-05-22T07:11:44.007Z,62.55
2019-05-22T07:12:50.758Z,62.52
2019-05-22T07:13:54.733Z,62.46
2019-05-22T07:15:06.910Z,62.35
2019-05-22T07:16:11.408Z,62.48
2019-05-22T07:17:17.306Z,62.45
2019-05-22T07:18:22.525Z,62.43
2019-05-22T07:19:29.134Z,62.49
2019-05-22T07:20:35.071Z,62.07
2019-05-22T07:21:40.081Z,62.22
2019-05-22T07:22:44.339Z,62.57
2019-05-22T07:23:49.513Z,62.75
2019-05-22T07:24:53.819Z,62.84
2019-05-22T07:25:59.686Z,62.73
2019-05-22T07:27:22.853Z,62.75
2019-05-22T07:28:28.385Z,62.56
2019-05-22T07:29:32.847Z,62.61
2019-05-22T07:30:37.697Z,62.68
2019-05-22T07:31:41.967Z,62.36
2019-05-22T07:32:46.725Z,62.35
2019-05-22T07:33:50.889Z,62.27
2019-05-22T07:34:56.171Z,61.96
2019-05-22T07:36:17.256Z,62.06
2019-05-22T07:37:06.814Z,61.84
2019-05-22T07:38:11.455Z,61.71
2019-05-22T07:39:16.239Z,61.76
2019-05-22T07:40:20.601Z,61.28
2019-05-22T07:41:26.034Z,60.88
2019-05-22T07:42:30.214Z,61.01
2019-05-22T07:43:34.999Z,60.75
2019-05-22T07:44:39.162Z,60.60
2019-05-22T07:45:44.317Z,60.55
2019-05-22T07:46:49.105Z,60.46
2019-05-22T07:47:54.492Z,60.67
2019-05-22T07:48:58.678Z,60.89
2019-05-22T07:50:03.992Z,60.77
2019-05-22T07:51:09.079Z,60.56
2019-05-22T07:52:13.843Z,61.14
2019-05-22T07:53:18.137Z,61.75
2019-05-22T07:54:22.876Z,61.48
2019-05-22T07:55:27.381Z,60.88
2019-05-22T07:56:33.043Z,61.69
2019-05-22T07:57:37.963Z,61.85
2019-05-22T07:58:42.754Z,62.26
2019-05-22T07:59:47.008Z,61.59
2019-05-22T08:00:56.618Z,60.22
2019-05-22T08:02:02.074Z,60.36
2019-05-22T08:03:07.564Z,60.58
2019-05-22T08:04:11.762Z,61.08
2019-05-22T08:05:18.161Z,60.47
2019-05-22T08:06:22.339Z,59.47
2019-05-22T08:07:28.853Z,59.50
2019-05-22T08:08:33.223Z,58.83
2019-05-22T08:09:38.322Z,57.81
2019-05-22T08:10:42.571Z,58.01
2019-05-22T08:11:47.374Z,58.06
2019-05-22T08:12:51.643Z,57.93
2019-05-22T08:13:57.290Z,57.99
2019-05-22T08:15:01.641Z,58.60
2019-05-22T08:16:07.987Z,58.29
2019-05-22T08:17:12.527Z,58.30
2019-05-22T08:18:17.730Z,57.81
2019-05-22T08:19:22.010Z,58.06
2019-05-22T08:20:26.813Z,57.54
2019-05-22T08:21:31.273Z,57.62
2019-05-22T08:22:36.769Z,57.57
2019-05-22T08:23:41.457Z,56.71
2019-05-22T08:24:46.225Z,56.81
2019-05-22T08:25:51.970Z,56.54
2019-05-22T08:26:56.922Z,56.05
2019-05-22T08:28:01.746Z,56.27
2019-05-22T08:29:06.592Z,55.89
2019-05-22T08:30:11.246Z,56.00
2019-05-22T08:31:16.360Z,55.16
2019-05-22T08:32:21.234Z,55.31
2019-05-22T08:33:26.619Z,55.64
2019-05-22T08:34:31.799Z,54.63
2019-05-22T08:35:36.762Z,53.71
2019-05-22T08:36:41.043Z,54.37
2019-05-22T08:37:45.783Z,55.11
2019-05-22T08:38:50.042Z,54.97
2019-05-22T08:39:54.907Z,55.82
2019-05-22T08:41:01.541Z,55.97
2019-05-22T08:42:07.780Z,56.18
2019-05-22T08:43:12.602Z,55.64
2019-05-22T08:44:17.996Z,55.44
2019-05-22T08:45:22.592Z,56.50
2019-05-22T08:46:27.398Z,56.81
2019-05-22T08:47:31.797Z,56.29
2019-05-22T08:48:36.859Z,55.94
2019-05-22T08:49:41.076Z,55.73
2019-05-22T08:50:46.323Z,54.85
2019-05-22T08:51:50.575Z,55.85
2019-05-22T08:52:55.522Z,55.85
2019-05-22T08:53:59.816Z,56.10
2019-05-22T08:55:06.465Z,55.42
2019-05-22T08:56:10.924Z,55.27
2019-05-22T08:57:16.291Z,55.77
2019-05-22T08:58:21.110Z,56.02
2019-05-22T08:59:26.647Z,55.00
2019-05-22T09:00:32.215Z,55.40
2019-05-22T09:01:47.909Z,55.38
2019-05-22T09:02:52.432Z,55.43
2019-05-22T09:03:57.171Z,54.23
2019-05-22T09:05:01.523Z,53.67
2019-05-22T09:06:06.484Z,53.36
2019-05-22T09:07:10.898Z,53.71
2019-05-22T09:08:15.689Z,54.07
2019-05-22T09:09:20.159Z,53.95
2019-05-22T09:10:26.320Z,53.01
2019-05-22T09:11:30.654Z,53.54
2019-05-22T09:12:35.645Z,53.80
2019-05-22T09:13:40.193Z,53.80
2019-05-22T09:14:45.353Z,53.33
2019-05-22T09:15:50.610Z,52.89
2019-05-22T09:16:55.522Z,53.23
2019-05-22T09:18:00.072Z,53.56
2019-05-22T09:19:05.356Z,53.58
2019-05-22T09:20:09.789Z,52.84
2019-05-22T09:21:14.894Z,52.91
2019-05-22T09:22:19.142Z,53.17
2019-05-22T09:23:24.215Z,53.10
2019-05-22T09:24:28.883Z,53.23
2019-05-22T09:25:34.565Z,53.66
2019-05-22T09:26:38.890Z,53.80
2019-05-22T09:27:43.634Z,53.17
2019-05-22T09:28:47.929Z,52.92
2019-05-22T09:29:52.802Z,52.07
2019-05-22T09:30:57.057Z,52.27
2019-05-22T09:32:02.010Z,53.13
2019-05-22T09:33:06.433Z,53.26
2019-05-22T09:34:11.303Z,52.86
2019-05-22T09:35:15.905Z,52.64
2019-05-22T09:36:20.723Z,53.03
2019-05-22T09:37:25.214Z,53.09
2019-05-22T09:38:30.804Z,52.57
2019-05-22T09:39:35.200Z,52.75
2019-05-22T09:40:39.820Z,52.89
2019-05-22T09:41:44.009Z,52.84
2019-05-22T09:42:48.928Z,53.15
2019-05-22T09:43:53.132Z,52.70
2019-05-22T09:44:57.952Z,53.23
2019-05-22T09:46:02.485Z,51.74
2019-05-22T09:47:09.094Z,52.01
2019-05-22T09:48:13.967Z,52.19
2019-05-22T09:49:19.298Z,52.26
2019-05-22T09:50:24.210Z,52.26
2019-05-22T09:51:30.425Z,51.78
2019-05-22T09:52:35.341Z,51.70
2019-05-22T09:53:40.194Z,52.19
2019-05-22T09:54:44.714Z,51.84
2019-05-22T09:55:49.680Z,51.27
2019-05-22T09:56:54.035Z,52.04
2019-05-22T09:57:58.861Z,51.98
2019-05-22T09:59:03.449Z,51.85
2019-05-22T10:00:10.684Z,51.37
2019-05-22T10:01:15.307Z,51.18
2019-05-22T10:02:20.472Z,51.75
2019-05-22T10:03:24.868Z,51.89
2019-05-22T10:04:29.636Z,52.15
2019-05-22T10:05:34.127Z,51.81
2019-05-22T10:06:39.357Z,51.42
2019-05-22T10:07:57.637Z,51.22
2019-05-22T10:08:50.423Z,51.34
2019-05-22T10:09:54.626Z,50.81
2019-05-22T10:10:59.677Z,51.10
2019-05-22T10:12:04.524Z,51.63
2019-05-22T10:13:09.287Z,51.29
2019-05-22T10:14:14.298Z,51.84
2019-05-22T10:15:19.559Z,51.33
2019-05-22T10:16:23.790Z,51.07
2019-05-22T10:17:28.871Z,50.61
2019-05-22T10:18:33.060Z,50.64
2019-05-22T10:19:38.135Z,50.46
2019-05-22T10:20:42.668Z,50.51
2019-05-22T10:21:49.568Z,50.42
2019-05-22T10:22:53.747Z,50.34
2019-05-22T10:23:58.966Z,50.50
2019-05-22T10:25:14.987Z,50.13
2019-05-22T10:26:10.775Z,50.09
2019-05-22T10:27:15.342Z,49.39
2019-05-22T10:28:20.364Z,49.70
2019-05-22T10:29:24.817Z,49.70
2019-05-22T10:30:29.697Z,49.91
2019-05-22T10:31:34.606Z,50.37
2019-05-22T10:32:39.383Z,50.30
2019-05-22T10:33:43.661Z,50.99
2019-05-22T10:34:48.402Z,51.33
2019-05-22T10:35:52.965Z,50.66
2019-05-22T10:36:58.707Z,50.64
2019-05-22T10:38:03.081Z,50.56
2019-05-22T10:39:08.555Z,50.56
2019-05-22T10:40:13.645Z,50.16
2019-05-22T10:41:19.607Z,49.93
2019-05-22T10:42:24.606Z,49.56
2019-05-22T10:43:29.478Z,49.14
2019-05-22T10:44:34.738Z,49.03
2019-05-22T10:45:39.523Z,48.99
2019-05-22T10:46:44.043Z,48.35
2019-05-22T10:47:49.409Z,48.52
2019-05-22T10:48:53.659Z,48.55
2019-05-22T10:49:58.537Z,49.68
2019-05-22T10:51:02.775Z,50.45
2019-05-22T10:52:08.843Z,49.09
2019-05-22T10:53:13.343Z,48.56
2019-05-22T10:54:18.186Z,50.31
2019-05-22T10:55:22.632Z,50.82
2019-05-22T10:56:27.483Z,49.04
2019-05-22T10:57:31.739Z,49.57
2019-05-22T10:58:36.644Z,49.59
2019-05-22T10:59:40.830Z,48.99
2019-05-22T11:00:45.636Z,48.03
2019-05-22T11:01:50.785Z,48.07
2019-05-22T11:02:55.603Z,47.71
2019-05-22T11:04:00.086Z,48.01
2019-05-22T11:05:05.790Z,48.22
2019-05-22T11:06:10.052Z,48.11
2019-05-22T11:07:16.460Z,47.86
2019-05-22T11:08:21.117Z,47.51
2019-05-22T11:09:26.987Z,47.71
2019-05-22T11:10:31.167Z,48.29
2019-05-22T11:11:36.480Z,47.71
2019-05-22T11:12:41.028Z,47.53
2019-05-22T11:13:59.878Z,47.62
2019-05-22T11:14:52.542Z,47.89
2019-05-22T11:15:58.923Z,48.21
2019-05-22T11:17:03.439Z,48.34
2019-05-22T11:18:08.862Z,48.26
2019-05-22T11:19:13.602Z,48.31
2019-05-22T11:20:18.592Z,47.68
2019-05-22T11:21:23.068Z,47.41
2019-05-22T11:22:27.804Z,47.69
2019-05-22T11:23:32.360Z,47.28
2019-05-22T11:24:37.447Z,47.44
2019-05-22T11:25:41.935Z,47.20
2019-05-22T11:26:47.863Z,46.88
2019-05-22T11:27:53.586Z,46.81
2019-05-22T11:28:58.585Z,47.08
2019-05-22T11:30:03.500Z,46.56
2019-05-22T11:31:08.814Z,47.06
2019-05-22T11:32:13.035Z,45.83
2019-05-22T11:33:17.772Z,46.98
2019-05-22T11:34:21.952Z,47.11
2019-05-22T11:35:28.023Z,46.31
2019-05-22T11:36:32.206Z,46.70
2019-05-22T11:37:38.113Z,47.29
2019-05-22T11:38:42.296Z,47.04
2019-05-22T11:39:48.377Z,47.02
2019-05-22T11:40:52.726Z,45.76
2019-05-22T11:41:57.550Z,45.30
2019-05-22T11:43:01.765Z,45.76
2019-05-22T11:44:07.182Z,46.82
2019-05-22T11:45:13.065Z,46.42
2019-05-22T11:46:17.959Z,46.52
2019-05-22T11:47:22.214Z,46.62
2019-05-22T11:48:27.057Z,45.73
2019-05-22T11:49:32.748Z,45.24
2019-05-22T11:50:38.358Z,45.52
2019-05-22T11:51:42.767Z,46.24
2019-05-22T11:52:48.039Z,45.74
2019-05-22T11:54:07.877Z,46.66
2019-05-22T11:55:00.644Z,46.36
2019-05-22T11:56:04.861Z,46.76
2019-05-22T11:57:10.429Z,46.50
2019-05-22T11:58:14.749Z,46.37
2019-05-22T11:59:20.003Z,44.05
2019-05-22T12:00:24.732Z,45.24
2019-05-22T12:01:30.799Z,45.89
2019-05-22T12:02:35.434Z,45.65
2019-05-22T12:03:40.176Z,45.32
2019-05-22T12:04:48.446Z,44.79
2019-05-22T12:05:51.180Z,44.88
2019-05-22T12:06:55.698Z,44.85
2019-05-22T12:08:01.677Z,43.28
2019-05-22T12:09:07.893Z,43.66
2019-05-22T12:10:14.873Z,44.41
2019-05-22T12:11:19.758Z,44.54
2019-05-22T12:12:24.585Z,45.48
2019-05-22T12:13:28.871Z,44.49
2019-05-22T12:14:34.437Z,43.46
2019-05-22T12:15:39.466Z,44.39
2019-05-22T12:16:45.615Z,44.38
2019-05-22T12:17:50.308Z,44.68
2019-05-22T12:18:58.507Z,44.22
2019-05-22T12:20:01.430Z,43.80
2019-05-22T12:21:06.775Z,44.20
2019-05-22T12:22:11.214Z,44.37
2019-05-22T12:23:15.987Z,44.51
2019-05-22T12:24:28.545Z,43.38
2019-05-22T12:25:27.008Z,43.29
2019-05-22T12:26:31.462Z,44.61
2019-05-22T12:27:36.448Z,45.04
2019-05-22T12:28:40.977Z,44.71
2019-05-22T12:29:46.550Z,44.38
2019-05-22T12:30:50.799Z,45.05
2019-05-22T12:31:55.667Z,44.56
2019-05-22T12:33:00.918Z,43.95
2019-05-22T12:34:06.035Z,44.36
2019-05-22T12:35:11.776Z,44.51
2019-05-22T12:36:16.903Z,44.04
2019-05-22T12:37:21.580Z,42.44
2019-05-22T12:38:27.514Z,43.45
2019-05-22T12:39:31.738Z,43.84
2019-05-22T12:40:36.887Z,43.94
2019-05-22T12:41:41.921Z,44.09
2019-05-22T12:42:46.978Z,43.78
2019-05-22T12:43:51.305Z,44.40
2019-05-22T12:44:56.156Z,43.46
2019-05-22T12:46:00.630Z,43.51
2019-05-22T12:47:05.804Z,43.07
2019-05-22T12:48:10.229Z,43.54
2019-05-22T12:49:15.316Z,43.42
2019-05-22T12:50:20.375Z,43.14
2019-05-22T12:51:26.153Z,44.00
2019-05-22T12:52:30.398Z,42.60
2019-05-22T12:53:35.311Z,42.79
2019-05-22T12:54:46.860Z,43.62
2019-05-22T12:55:46.974Z,42.86
2019-05-22T12:56:52.221Z,42.41
2019-05-22T12:57:56.978Z,42.69
2019-05-22T12:59:01.329Z,42.90
2019-05-22T13:00:08.730Z,42.64
2019-05-22T13:01:12.914Z,42.66
2019-05-22T13:02:18.552Z,41.94
2019-05-22T13:03:22.800Z,42.26
2019-05-22T13:04:27.878Z,42.04
2019-05-22T13:05:34.214Z,42.60
2019-05-22T13:06:39.420Z,42.40
2019-05-22T13:07:43.673Z,41.34
2019-05-22T13:08:48.504Z,42.59
2019-05-22T13:09:52.800Z,43.32
2019-05-22T13:10:58.799Z,43.06
2019-05-22T13:12:04.818Z,42.99
2019-05-22T13:13:09.944Z,42.76
2019-05-22T13:14:14.117Z,43.69
2019-05-22T13:15:18.867Z,44.12
2019-05-22T13:16:23.320Z,43.94
2019-05-22T13:17:28.321Z,43.55
2019-05-22T13:18:32.865Z,43.80
2019-05-22T13:19:38.438Z,42.82
2019-05-22T13:20:46.655Z,42.71
2019-05-22T13:21:52.458Z,41.75
2019-05-22T13:22:56.847Z,42.01
2019-05-22T13:24:02.730Z,41.52
2019-05-22T13:25:08.456Z,42.39
2019-05-22T13:26:13.267Z,42.74
2019-05-22T13:27:17.791Z,42.76
2019-05-22T13:28:23.387Z,42.86
2019-05-22T13:29:28.547Z,43.06
2019-05-22T13:30:34.414Z,41.74
2019-05-22T13:31:38.605Z,42.43
2019-05-22T13:32:44.622Z,42.59
2019-05-22T13:33:48.873Z,42.57
2019-05-22T13:34:54.566Z,41.11
2019-05-22T13:35:59.561Z,41.50
2019-05-22T13:37:05.418Z,41.49
2019-05-22T13:38:10.215Z,41.93
2019-05-22T13:39:15.225Z,41.28
2019-05-22T13:40:27.736Z,41.09
2019-05-22T13:41:26.414Z,42.52
2019-05-22T13:42:30.983Z,42.38
2019-05-22T13:43:36.511Z,41.39
2019-05-22T13:44:41.275Z,41.39
2019-05-22T13:45:46.268Z,41.95
2019-05-22T13:46:50.559Z,42.00
2019-05-22T13:47:55.300Z,42.15
2019-05-22T13:48:59.586Z,41.61
2019-05-22T13:50:07.732Z,41.45
2019-05-22T13:51:12.525Z,40.14
2019-05-22T13:52:17.311Z,40.60
2019-05-22T13:53:21.493Z,41.01
2019-05-22T13:54:27.308Z,41.66
2019-05-22T13:55:31.935Z,40.93
2019-05-22T13:56:37.533Z,41.07
2019-05-22T13:57:42.458Z,41.49
2019-05-22T13:58:47.490Z,42.24
2019-05-22T13:59:51.812Z,42.79
2019-05-22T14:00:56.974Z,42.08
2019-05-22T14:02:01.200Z,41.70
2019-05-22T14:03:06.068Z,41.04
2019-05-22T14:04:10.257Z,41.43
2019-05-22T14:05:15.001Z,41.57
2019-05-22T14:06:19.336Z,41.76
2019-05-22T14:07:24.288Z,41.70
2019-05-22T14:08:29.198Z,41.69
2019-05-22T14:09:33.938Z,40.75
2019-05-22T14:10:38.126Z,40.51
2019-05-22T14:11:42.940Z,40.47